createdAt,value
2019-04-07T00:00:08.954Z,42.70
2019-04-07T00:02:37.391Z,39.40
2019-04-07T00:05:13.640Z,42.43
2019-04-07T00:07:37.922Z,41.30
2019-04-07T00:10:10.061Z,39.87
2019-04-07T00:12:38.453Z,41.77
2019-04-07T00:15:07.054Z,38.57
2019-04-07T00:17:36.152Z,39.47
2019-04-07T00:20:07.332Z,39.00
2019-04-07T00:22:35.741Z,38.30
2019-04-07T00:25:05.383Z,40.53
2019-04-07T00:27:33.769Z,38.13
2019-04-07T00:30:02.441Z,38.50
2019-04-07T00:32:30.835Z,39.07
2019-04-07T00:34:59.884Z,39.60
2019-04-07T00:37:29.477Z,41.53
2019-04-07T00:39:58.940Z,43.40
2019-04-07T00:42:27.932Z,46.10
2019-04-07T00:44:56.347Z,46.20
2019-04-07T00:47:24.925Z,41.87
2019-04-07T00:49:53.401Z,45.70
2019-04-07T00:52:23.700Z,45.87
2019-04-07T00:54:52.700Z,47.43
2019-04-07T00:57:21.102Z,55.47
2019-04-07T00:59:49.495Z,58.73
2019-04-07T01:02:19.555Z,63.60
2019-04-07T01:04:47.964Z,65.17
2019-04-07T01:07:16.353Z,65.57
2019-04-07T01:09:45.310Z,64.63
2019-04-07T01:12:14.819Z,61.83
2019-04-07T01:14:44.244Z,60.23
2019-04-07T01:17:13.733Z,59.73
2019-04-07T01:19:43.512Z,60.17
2019-04-07T01:22:11.903Z,63.57
2019-04-07T01:24:40.641Z,66.10
2019-04-07T01:27:10.430Z,59.00
2019-04-07T01:29:39.953Z,51.60
2019-04-07T01:32:08.944Z,51.40
2019-04-07T01:34:37.348Z,51.40
2019-04-07T01:37:05.742Z,51.20
2019-04-07T01:39:34.868Z,49.53
2019-04-07T01:42:05.897Z,51.70
2019-04-07T01:44:37.159Z,53.37
2019-04-07T01:47:09.903Z,55.70
2019-04-07T01:49:55.554Z,47.93
2019-04-07T01:52:26.253Z,48.10
2019-04-07T01:55:12.937Z,50.83
2019-04-07T01:57:42.989Z,56.87
2019-04-07T02:00:19.984Z,56.87
2019-04-07T02:02:52.672Z,50.17
2019-04-07T02:05:39.308Z,54.67
2019-04-07T02:08:12.480Z,61.57
2019-04-07T02:10:45.892Z,61.73
2019-04-07T02:13:16.590Z,66.43
2019-04-07T02:16:02.883Z,63.50
2019-04-07T02:18:40.029Z,59.90
2019-04-07T02:21:10.576Z,57.97
2019-04-07T02:23:55.956Z,51.43
2019-04-07T02:26:25.984Z,50.83
2019-04-07T02:29:05.874Z,51.27
2019-04-07T02:31:54.035Z,48.33
2019-04-07T02:34:27.903Z,51.70
2019-04-07T02:37:03.001Z,46.27
2019-04-07T02:39:50.513Z,44.63
2019-04-07T02:42:30.404Z,48.33
2019-04-07T02:45:01.387Z,47.47
2019-04-07T02:47:35.304Z,44.73
2019-04-07T02:50:07.661Z,44.63
2019-04-07T02:52:54.679Z,49.20
2019-04-07T02:55:25.766Z,52.40
2019-04-07T02:57:58.112Z,47.50
2019-04-07T03:00:45.432Z,45.20
2019-04-07T03:03:34.347Z,45.43
2019-04-07T03:06:05.357Z,46.20
2019-04-07T03:08:38.453Z,48.23
2019-04-07T03:11:09.543Z,50.10
2019-04-07T03:13:52.148Z,51.23
2019-04-07T03:16:22.854Z,45.27
2019-04-07T03:18:52.960Z,45.07
2019-04-07T03:21:23.004Z,44.63
2019-04-07T03:23:56.497Z,49.63
2019-04-07T03:26:29.543Z,47.07
2019-04-07T03:29:16.178Z,47.80
2019-04-07T03:31:51.204Z,44.60
2019-04-07T03:34:38.774Z,42.73
2019-04-07T03:37:22.956Z,44.43
2019-04-07T03:39:44.248Z,44.23
2019-04-07T03:42:14.524Z,43.53
2019-04-07T03:44:48.934Z,42.23
2019-04-07T03:47:23.405Z,43.10
2019-04-07T03:49:54.932Z,43.13
2019-04-07T03:55:20.598Z,43.30
2019-04-07T03:58:10.018Z,44.00
2019-04-07T04:03:34.366Z,44.63
2019-04-07T04:06:11.777Z,43.87
2019-04-07T04:08:45.729Z,46.27
2019-04-07T04:11:19.112Z,45.00
2019-04-07T04:13:51.684Z,45.77
2019-04-07T04:16:20.180Z,45.20
2019-04-07T04:18:48.788Z,47.93
2019-04-07T04:21:17.724Z,49.10
2019-04-07T04:23:46.858Z,47.83
2019-04-07T04:26:15.236Z,49.80
2019-04-07T04:28:44.270Z,53.27
2019-04-07T04:31:14.042Z,59.37
2019-04-07T04:33:42.975Z,51.80
2019-04-07T04:36:11.389Z,47.23
2019-04-07T04:38:40.480Z,44.67
2019-04-07T04:41:10.107Z,45.77
2019-04-07T04:43:40.361Z,44.17
2019-04-07T04:46:10.951Z,47.50
2019-04-07T04:48:39.475Z,45.50
2019-04-07T04:51:08.598Z,50.63
2019-04-07T04:53:38.149Z,47.30
2019-04-07T04:56:07.643Z,50.80
2019-04-07T04:58:36.669Z,53.20
2019-04-07T05:01:05.081Z,54.53
2019-04-07T05:03:33.883Z,56.33
2019-04-07T05:06:03.671Z,62.10
2019-04-07T05:08:32.634Z,58.73
2019-04-07T05:11:01.610Z,62.13
2019-04-07T05:13:30.652Z,61.90
2019-04-07T05:15:59.427Z,56.10
2019-04-07T05:18:28.968Z,65.37
2019-04-07T05:20:58.217Z,60.93
2019-04-07T05:23:27.173Z,60.90
2019-04-07T05:25:55.706Z,61.93
2019-04-07T05:28:24.633Z,68.87
2019-04-07T05:30:53.384Z,67.70
2019-04-07T05:33:22.373Z,72.17
2019-04-07T05:35:50.772Z,73.33
2019-04-07T05:38:19.234Z,76.83
2019-04-07T05:40:47.643Z,73.00
2019-04-07T05:43:16.147Z,75.80
2019-04-07T05:45:45.466Z,75.33
2019-04-07T05:48:17.465Z,73.07
2019-04-07T05:50:44.913Z,65.73
2019-04-07T05:53:14.775Z,56.83
2019-04-07T05:55:43.768Z,58.80
2019-04-07T05:58:14.811Z,58.20
2019-04-07T06:00:45.740Z,58.17
2019-04-07T06:03:12.664Z,61.30
2019-04-07T06:05:41.059Z,61.77
2019-04-07T06:08:23.633Z,61.53
2019-04-07T06:10:40.299Z,63.37
2019-04-07T06:13:12.919Z,60.87
2019-04-07T06:15:40.307Z,62.13
2019-04-07T06:18:09.388Z,62.27
2019-04-07T06:20:38.036Z,58.47
2019-04-07T06:23:06.406Z,56.67
2019-04-07T06:25:38.770Z,57.37
2019-04-07T06:28:05.416Z,56.13
2019-04-07T06:30:36.098Z,54.83
2019-04-07T06:33:06.969Z,56.33
2019-04-07T06:35:34.777Z,56.93
2019-04-07T06:38:06.690Z,57.80
2019-04-07T06:40:33.849Z,55.10
2019-04-07T06:43:05.234Z,58.03
2019-04-07T06:45:40.830Z,55.13
2019-04-07T06:48:11.484Z,55.13
2019-04-07T06:50:54.809Z,54.67
2019-04-07T06:53:25.858Z,56.63
2019-04-07T06:56:00.068Z,64.93
2019-04-07T06:58:43.832Z,57.10
2019-04-07T07:01:29.654Z,87.97
2019-04-07T07:04:18.427Z,151.30
2019-04-07T07:06:48.505Z,107.37
2019-04-07T07:09:34.960Z,140.13
2019-04-07T07:12:19.196Z,54.17
2019-04-07T07:15:00.965Z,54.20
2019-04-07T07:17:36.524Z,52.13
2019-04-07T07:20:18.811Z,52.37
2019-04-07T07:22:52.663Z,49.00
2019-04-07T07:25:21.565Z,50.20
2019-04-07T07:27:49.961Z,50.43
2019-04-07T07:30:19.594Z,48.97
2019-04-07T07:32:48.649Z,48.13
2019-04-07T07:35:18.009Z,46.80
2019-04-07T07:37:47.606Z,46.37
2019-04-07T07:40:18.376Z,46.37
2019-04-07T07:42:49.812Z,47.13
2019-04-07T07:45:17.592Z,47.83
2019-04-07T07:47:51.379Z,46.43
2019-04-07T07:50:17.849Z,45.57
2019-04-07T07:52:49.251Z,44.03
2019-04-07T07:55:17.307Z,45.30
2019-04-07T07:57:45.676Z,44.73
2019-04-07T08:00:14.583Z,43.43
2019-04-07T08:02:44.317Z,40.47
2019-04-07T08:05:13.594Z,44.33
2019-04-07T08:07:45.733Z,42.00
2019-04-07T08:10:13.746Z,40.90
2019-04-07T08:12:42.189Z,38.20
2019-04-07T08:15:10.676Z,40.23
2019-04-07T08:17:39.166Z,39.57
2019-04-07T08:20:08.507Z,38.43
2019-04-07T08:22:42.335Z,38.13
2019-04-07T08:25:07.114Z,39.17
2019-04-07T08:27:35.558Z,39.63
2019-04-07T08:30:11.200Z,39.50
2019-04-07T08:32:37.213Z,39.20
2019-04-07T08:35:07.920Z,38.17
2019-04-07T08:37:36.503Z,37.10
2019-04-07T08:40:07.875Z,37.73
2019-04-07T08:42:36.938Z,37.20
2019-04-07T08:45:07.141Z,35.20
2019-04-07T08:47:35.628Z,35.67
2019-04-07T08:50:07.259Z,31.80
2019-04-07T08:52:40.580Z,32.37
2019-04-07T08:55:10.359Z,33.67
2019-04-07T08:57:38.427Z,32.07
2019-04-07T09:00:13.153Z,32.17
2019-04-07T09:02:39.083Z,32.00
2019-04-07T09:05:09.277Z,31.90
2019-04-07T09:07:37.939Z,30.13
2019-04-07T09:10:09.537Z,29.43
2019-04-07T09:12:37.932Z,28.57
2019-04-07T09:15:11.556Z,27.17
2019-04-07T09:17:45.949Z,27.40
2019-04-07T09:20:29.265Z,27.57
2019-04-07T09:23:15.428Z,25.73
2019-04-07T09:25:45.514Z,24.53
2019-04-07T09:28:32.209Z,25.53
2019-04-07T09:31:04.945Z,26.47
2019-04-07T09:33:36.931Z,26.57
2019-04-07T09:36:23.449Z,26.57
2019-04-07T09:39:00.709Z,24.20
2019-04-07T09:41:29.805Z,26.13
2019-04-07T09:44:17.341Z,24.73
2019-04-07T09:47:06.361Z,24.23
2019-04-07T09:49:36.614Z,24.73
2019-04-07T09:52:17.070Z,24.73
2019-04-07T09:55:04.576Z,24.37
2019-04-07T09:57:51.210Z,24.10
2019-04-07T10:00:25.136Z,23.80
2019-04-07T10:02:55.229Z,24.00
2019-04-07T10:05:40.912Z,24.43
2019-04-07T10:08:28.136Z,23.45
2019-04-07T10:11:01.744Z,22.93
2019-04-07T10:13:49.014Z,21.02
2019-04-07T10:16:21.084Z,22.30
2019-04-07T10:19:00.734Z,20.45
2019-04-07T10:21:46.585Z,20.40
2019-04-07T10:24:31.569Z,17.73
2019-04-07T10:27:05.896Z,17.65
2019-04-07T10:29:52.421Z,19.27
2019-04-07T10:32:41.774Z,17.50
2019-04-07T10:35:12.579Z,16.55
2019-04-07T10:37:45.092Z,17.17
2019-04-07T10:40:22.175Z,17.87
2019-04-07T10:43:10.682Z,19.30
2019-04-07T10:45:41.752Z,18.75
2019-04-07T10:48:25.767Z,18.30
2019-04-07T10:51:12.420Z,18.77
2019-04-07T10:53:58.727Z,19.02
2019-04-07T10:56:34.952Z,19.62
2019-04-07T10:59:11.450Z,20.68
2019-04-07T11:02:00.267Z,22.17
2019-04-07T11:04:39.803Z,22.40
2019-04-07T11:07:26.645Z,22.58
2019-04-07T11:10:03.715Z,22.65
2019-04-07T11:12:46.904Z,21.95
2019-04-07T11:15:22.796Z,21.90
2019-04-07T11:17:52.835Z,21.57
2019-04-07T11:20:22.989Z,22.52
2019-04-07T11:22:59.640Z,22.05
2019-04-07T11:25:32.740Z,43.28
2019-04-07T11:28:09.516Z,40.90
2019-04-07T11:30:42.125Z,22.93
2019-04-07T11:33:15.074Z,43.40
2019-04-07T11:35:52.121Z,22.30
2019-04-07T11:38:35.272Z,19.05
2019-04-07T11:41:12.410Z,23.85
2019-04-07T11:43:45.439Z,21.60
2019-04-07T11:46:31.788Z,18.87
2019-04-07T11:49:02.445Z,17.65
2019-04-07T11:51:39.003Z,19.23
2019-04-07T11:54:21.678Z,17.52
2019-04-07T11:57:20.422Z,17.73
2019-04-07T12:00:07.594Z,16.17
2019-04-07T12:02:40.444Z,16.07
2019-04-07T12:05:09.876Z,15.80
2019-04-07T12:07:43.580Z,16.10
2019-04-07T12:10:23.103Z,16.20
2019-04-07T12:12:53.816Z,16.23
2019-04-07T12:15:26.726Z,17.10
2019-04-07T12:18:01.429Z,15.88
2019-04-07T12:20:35.432Z,15.00
2019-04-07T12:23:25.191Z,14.33
2019-04-07T12:25:57.604Z,15.18
2019-04-07T12:28:47.588Z,16.52
2019-04-07T12:31:21.423Z,16.05
2019-04-07T12:34:00.092Z,15.15
2019-04-07T12:36:48.652Z,13.00
2019-04-07T12:39:33.597Z,13.00
2019-04-07T12:42:07.099Z,13.35
2019-04-07T12:44:39.874Z,12.95
2019-04-07T12:47:27.630Z,13.38
2019-04-07T12:50:16.663Z,13.60
2019-04-07T12:52:47.334Z,11.73
2019-04-07T12:55:37.231Z,10.95
2019-04-07T12:58:13.826Z,10.00
2019-04-07T13:01:09.813Z,12.80
2019-04-07T13:03:32.134Z,10.63
2019-04-07T13:06:09.256Z,10.85
2019-04-07T13:08:49.073Z,8.90
2019-04-07T13:11:31.221Z,8.63
2019-04-07T13:14:09.916Z,9.78
2019-04-07T13:16:49.257Z,9.78
2019-04-07T13:19:28.579Z,9.50
2019-04-07T13:22:01.610Z,9.73
2019-04-07T13:24:48.643Z,11.40
2019-04-07T13:27:35.240Z,9.83
2019-04-07T13:30:08.753Z,11.38
2019-04-07T13:32:43.231Z,11.33
2019-04-07T13:35:25.626Z,9.75
2019-04-07T13:38:05.566Z,9.23
2019-04-07T13:40:45.182Z,10.45
2019-04-07T13:43:33.201Z,9.18
2019-04-07T13:46:03.781Z,8.00
2019-04-07T13:48:37.915Z,8.30
2019-04-07T13:51:18.255Z,7.17
2019-04-07T13:54:05.614Z,5.80
2019-04-07T13:56:36.515Z,6.10
2019-04-07T13:59:09.848Z,6.40
2019-04-07T14:01:38.660Z,5.28
2019-04-07T14:04:14.195Z,5.33
2019-04-07T14:06:49.945Z,5.67
2019-04-07T14:09:22.717Z,5.30
2019-04-07T14:12:04.817Z,5.47
2019-04-07T14:14:44.692Z,5.15
2019-04-07T14:17:26.143Z,5.00
2019-04-07T14:19:55.384Z,4.47
2019-04-07T14:22:32.094Z,5.30
2019-04-07T14:25:20.190Z,5.37
2019-04-07T14:28:02.478Z,5.08
2019-04-07T14:30:33.949Z,4.60
2019-04-07T14:33:21.459Z,5.20
2019-04-07T14:36:04.323Z,5.10
2019-04-07T14:38:34.578Z,4.70
2019-04-07T14:41:13.919Z,4.47
2019-04-07T14:43:47.520Z,4.85
2019-04-07T14:46:37.901Z,14.43
2019-04-07T14:49:13.497Z,4.55
2019-04-07T14:51:59.133Z,5.03
2019-04-07T14:54:35.329Z,4.40
2019-04-07T14:57:07.344Z,4.53
2019-04-07T14:59:49.663Z,5.20
2019-04-07T15:02:18.064Z,4.58
2019-04-07T15:04:48.093Z,5.25
2019-04-07T15:07:21.572Z,5.20
2019-04-07T15:09:54.603Z,4.55
2019-04-07T15:12:31.995Z,4.53
2019-04-07T15:15:05.537Z,4.58
2019-04-07T15:17:30.521Z,4.90
2019-04-07T15:19:59.020Z,4.92
2019-04-07T15:22:29.948Z,4.70
2019-04-07T15:24:58.100Z,4.28
2019-04-07T15:27:27.318Z,4.80
2019-04-07T15:29:55.701Z,5.00
2019-04-07T15:32:27.344Z,4.67
2019-04-07T15:34:54.611Z,5.10
2019-04-07T15:37:25.011Z,5.55
2019-04-07T15:39:53.541Z,5.00
2019-04-07T15:42:33.118Z,5.55
2019-04-07T15:44:52.080Z,5.25
2019-04-07T15:47:21.909Z,5.30
2019-04-07T15:49:52.844Z,5.20
2019-04-07T15:52:21.850Z,5.50
2019-04-07T15:54:53.357Z,5.42
2019-04-07T15:57:22.010Z,5.00
2019-04-07T15:59:50.972Z,5.22
2019-04-07T16:02:19.525Z,5.58
2019-04-07T16:04:49.413Z,5.78
2019-04-07T16:07:18.699Z,5.12
2019-04-07T16:09:53.868Z,5.67
2019-04-07T16:12:18.068Z,5.62
2019-04-07T16:14:47.052Z,5.15
2019-04-07T16:17:16.914Z,5.30
2019-04-07T16:19:50.951Z,5.47
2019-04-07T16:22:16.943Z,5.03
2019-04-07T16:24:46.299Z,4.65
2019-04-07T16:27:15.228Z,4.60
2019-04-07T16:29:46.107Z,4.75
2019-04-07T16:32:14.613Z,4.80
2019-04-07T16:34:44.035Z,4.60
2019-04-07T16:37:13.822Z,4.62
2019-04-07T16:39:42.777Z,4.78
2019-04-07T16:42:11.193Z,6.60
2019-04-07T16:44:43.935Z,5.45
2019-04-07T16:47:19.550Z,5.23
2019-04-07T16:49:44.673Z,5.53
2019-04-07T16:52:09.958Z,4.60
2019-04-07T16:54:41.644Z,4.40
2019-04-07T16:57:09.325Z,4.43
2019-04-07T16:59:40.737Z,4.73
2019-04-07T17:02:08.131Z,4.70
2019-04-07T17:04:36.569Z,5.30
2019-04-07T17:07:08.875Z,6.27
2019-04-07T17:09:36.609Z,5.20
2019-04-07T17:12:05.417Z,5.00
2019-04-07T17:14:36.118Z,4.90
2019-04-07T17:17:04.827Z,5.40
2019-04-07T17:19:35.863Z,5.63
2019-04-07T17:22:05.007Z,6.07
2019-04-07T17:24:33.475Z,6.40
2019-04-07T17:27:03.047Z,5.90
2019-04-07T17:29:32.266Z,5.63
2019-04-07T17:32:02.838Z,33.93
2019-04-07T17:34:32.567Z,24.47
2019-04-07T17:37:01.052Z,11.43
2019-04-07T17:39:31.528Z,9.23
2019-04-07T17:42:00.373Z,9.13
2019-04-07T17:44:33.975Z,7.73
2019-04-07T17:47:04.181Z,8.87
2019-04-07T17:49:35.858Z,9.93
2019-04-07T17:52:12.761Z,9.30
2019-04-07T17:55:00.014Z,7.27
2019-04-07T17:57:34.810Z,7.93
2019-04-07T18:00:18.534Z,7.73
2019-04-07T18:03:10.300Z,7.73
2019-04-07T18:05:39.472Z,7.13
2019-04-07T18:08:28.341Z,7.30
2019-04-07T18:11:02.316Z,7.07
2019-04-07T18:13:41.970Z,7.17
2019-04-07T18:16:21.246Z,6.93
2019-04-07T18:19:04.434Z,7.30
2019-04-07T18:21:53.803Z,7.07
2019-04-07T18:24:40.464Z,7.67
2019-04-07T18:27:16.655Z,7.53
2019-04-07T18:29:54.989Z,7.80
2019-04-07T18:32:31.893Z,7.93
2019-04-07T18:35:02.585Z,8.43
2019-04-07T18:37:49.140Z,8.30
2019-04-07T18:40:26.339Z,8.50
2019-04-07T18:42:54.005Z,8.27
2019-04-07T18:45:45.949Z,7.97
2019-04-07T18:48:28.461Z,8.27
2019-04-07T18:51:00.898Z,8.57
2019-04-07T18:53:31.838Z,7.80
2019-04-07T18:56:03.435Z,8.17
2019-04-07T18:58:34.387Z,8.23
2019-04-07T19:01:08.876Z,7.47
2019-04-07T19:03:55.968Z,9.00
2019-04-07T19:06:26.561Z,8.20
2019-04-07T19:08:59.843Z,7.67
2019-04-07T19:11:31.101Z,8.17
2019-04-07T19:14:24.620Z,7.53
2019-04-07T19:16:50.424Z,8.53
2019-04-07T19:19:28.695Z,8.70
2019-04-07T19:22:10.990Z,8.03
2019-04-07T19:24:43.927Z,8.90
2019-04-07T19:27:31.472Z,9.07
2019-04-07T19:30:02.145Z,9.13
2019-04-07T19:32:41.225Z,8.93
2019-04-07T19:35:32.267Z,9.53
2019-04-07T19:38:14.214Z,8.97
2019-04-07T19:40:53.930Z,15.23
2019-04-07T19:43:29.255Z,10.43
2019-04-07T19:46:04.808Z,9.90
2019-04-07T19:48:44.928Z,10.20
2019-04-07T19:51:31.939Z,10.23
2019-04-07T19:54:05.219Z,10.97
2019-04-07T19:56:51.632Z,10.77
2019-04-07T19:59:21.780Z,11.20
2019-04-07T20:02:02.104Z,11.07
2019-04-07T20:04:44.862Z,10.53
2019-04-07T20:07:15.882Z,12.13
2019-04-07T20:09:48.350Z,14.07
2019-04-07T20:12:39.541Z,12.87
2019-04-07T20:15:18.332Z,10.40
2019-04-07T20:18:05.967Z,10.80
2019-04-07T20:20:46.498Z,11.00
2019-04-07T20:23:36.028Z,12.23
2019-04-07T20:26:08.810Z,22.60
2019-04-07T20:28:43.470Z,37.43
2019-04-07T20:31:19.437Z,29.97
2019-04-07T20:33:57.403Z,20.73
2019-04-07T20:36:33.848Z,27.27
2019-04-07T20:39:10.076Z,18.40
2019-04-07T20:41:46.882Z,14.43
2019-04-07T20:44:21.033Z,14.17
2019-04-07T20:47:07.914Z,11.43
2019-04-07T20:49:51.548Z,35.97
2019-04-07T20:52:25.004Z,49.40
2019-04-07T20:55:11.950Z,29.23
2019-04-07T20:57:48.210Z,59.13
2019-04-07T21:00:35.656Z,24.70
2019-04-07T21:03:19.795Z,14.20
2019-04-07T21:05:44.337Z,16.37
2019-04-07T21:08:14.981Z,20.40
2019-04-07T21:10:58.015Z,23.97
2019-04-07T21:13:28.957Z,57.27
2019-04-07T21:16:05.716Z,36.83
2019-04-07T21:18:44.938Z,44.83
2019-04-07T21:21:34.556Z,41.17
2019-04-07T21:24:19.838Z,42.50
2019-04-07T21:27:02.588Z,43.87
2019-04-07T21:29:38.599Z,46.67
2019-04-07T21:32:09.788Z,48.00
2019-04-07T21:34:43.060Z,47.40
2019-04-07T21:37:19.784Z,50.07
2019-04-07T21:39:53.657Z,52.90
2019-04-07T21:42:29.206Z,50.63
2019-04-07T21:45:05.420Z,51.13
2019-04-07T21:47:50.317Z,51.23
2019-04-07T21:50:26.651Z,57.67
2019-04-07T21:53:08.933Z,54.20
2019-04-07T21:55:56.171Z,55.00
2019-04-07T21:58:26.603Z,51.57
2019-04-07T22:01:05.079Z,53.00
2019-04-07T22:03:49.728Z,53.30
2019-04-07T22:06:23.178Z,52.97
2019-04-07T22:08:53.953Z,54.77
2019-04-07T22:11:25.373Z,54.10
2019-04-07T22:13:53.377Z,55.47
2019-04-07T22:16:24.142Z,55.73
2019-04-07T22:18:51.958Z,59.13
2019-04-07T22:21:22.302Z,55.30
2019-04-07T22:23:50.723Z,57.13
2019-04-07T22:26:20.317Z,57.23
2019-04-07T22:28:49.428Z,53.83
2019-04-07T22:31:19.451Z,55.77
2019-04-07T22:33:47.857Z,54.33
2019-04-07T22:36:16.733Z,53.90
2019-04-07T22:38:45.719Z,51.57
2019-04-07T22:41:14.114Z,54.03
2019-04-07T22:43:43.414Z,53.13
2019-04-07T22:46:17.476Z,54.13
2019-04-07T22:48:42.608Z,53.00
2019-04-07T22:51:12.490Z,50.83
2019-04-07T22:53:41.328Z,51.43
2019-04-07T22:56:10.307Z,50.80
2019-04-07T22:58:38.695Z,50.07
2019-04-07T23:01:07.720Z,52.93
2019-04-07T23:03:36.968Z,51.93
2019-04-07T23:06:05.984Z,52.57
2019-04-07T23:08:35.015Z,49.30
2019-04-07T23:11:04.473Z,49.83
2019-04-07T23:13:32.862Z,50.40
2019-04-07T23:16:10.589Z,52.90
2019-04-07T23:18:31.759Z,51.30
2019-04-07T23:21:01.138Z,52.10
2019-04-07T23:23:31.017Z,52.23
2019-04-07T23:26:00.020Z,53.60
2019-04-07T23:28:28.412Z,51.20
2019-04-07T23:30:56.967Z,51.37
2019-04-07T23:33:25.877Z,50.20
2019-04-07T23:35:54.278Z,50.17
2019-04-07T23:38:22.673Z,50.37
2019-04-07T23:40:51.508Z,48.87
2019-04-07T23:43:21.537Z,50.27
2019-04-07T23:45:50.600Z,51.70
2019-04-07T23:48:19.176Z,50.53
2019-04-07T23:50:48.172Z,51.00
2019-04-07T23:53:53.765Z,51.93
2019-04-07T23:56:22.803Z,50.23
2019-04-07T23:58:52.014Z,52.40
